Nearby METAR Reports

 

KORH - Worcester, Massachusetts, USA
Distance from station: NW 4mi, 7km
Updated: Tue, 26-Mar-2019 10:54pm EDT
Clear
Clear
 Wind from NNW
Wind: NNW 9 mph , 15 km/h
Temperature: 30°F , -1°C
Wind Chill: 22°F , -6°C
Dew Point: 1°F , -17°C
Humidity: 29%
Barometer: 30.31 inHg , 1026.4 hPa
Clouds: Clear
Visibility: 10 miles , 16 km
2019/03/27 02:54 KORH 270254Z 34008KT 10SM CLR M01/M17 A3031 RMK AO2 SLP276 T10061167 51014
KBOS - Boston, Massachusetts, USA
Distance from station: ENE 42mi, 68km
Updated: Tue, 26-Mar-2019 10:54pm EDT
Clear
Clear
 Wind from NNW
Wind: NNW 12 mph , 19 km/h
Temperature: 37°F , 3°C
Wind Chill: 29°F , -2°C
Dew Point: 1°F , -17°C
Humidity: 22%
Barometer: 30.35 inHg , 1027.8 hPa
Clouds: Clear
Visibility: 10 miles , 16 km
2019/03/27 02:54 KBOS 270254Z 33010KT 10SM CLR 03/M17 A3035 RMK AO2 SLP277 T00281172 51020
 
KCQX - Chatham, Massachusetts, USA
Distance from station: SE 102mi, 164km
Updated: Tue, 26-Mar-2019 10:52pm EDT
Clear
Clear
 Wind from calm
Wind: Calm
Temperature: 27°F , -3°C
Dew Point: 16°F , -9°C
Humidity: 64%
Barometer: 30.34 inHg , 1027.4 hPa
Clouds: Clear
Visibility: 10 miles , 16 km
2019/03/27 02:52 KCQX 270252Z AUTO 00000KT 10SM CLR M03/M09 A3034 RMK AO2 SLP274 T10281089 51017
KMVY - Marthas Vineyard, Massachusetts, USA
Distance from station: SE 84mi, 135km
Updated: Tue, 26-Mar-2019 10:53pm EDT
Clear
Clear
 Wind from NW
Wind: NW 6 mph , 9 km/h
Barometer: 30.33 inHg , 1027.1 hPa
Clouds: Clear
Visibility: 10 miles , 16 km
2019/03/27 02:53 KMVY 270253Z AUTO 31005KT 10SM CLR A3033 RMK AO2 SLPNO 51017
 
KPVC - Provincetown, Massachusetts, USA
Distance from station: NNW 85mi, 136km
Updated: Tue, 26-Mar-2019 10:56pm EDT
Clear
Clear
 Wind from NW
Wind: NW 8 mph , 13 km/h
Temperature: 34°F , 1°C
Wind Chill: 27°F , -3°C
Dew Point: 23°F , -5°C
Humidity: 65%
Barometer: 30.35 inHg , 1027.8 hPa
Clouds: Clear
Visibility: 10 miles , 16 km
2019/03/27 02:56 KPVC 270256Z AUTO 32007KT 10SM CLR 01/M05 A3035 RMK AO2 SLP276 6//// T00111050 51018 FZRANO PNO $
KAQW - Savoy, Massachusetts, USA
Distance from station: NNW 66mi, 106km
Updated: Tue, 26-Mar-2019 10:52pm EDT
Clear
Clear
 Wind from WSW
Wind: WSW 5 mph , 7 km/h
Temperature: 27°F , -3°C
Wind Chill: 21°F , -6°C
Dew Point: 12°F , -11°C
Humidity: 54%
Barometer: 30.36 inHg , 1028.1 hPa
Clouds: Clear
Visibility: 10 miles , 16 km
2019/03/27 02:52 KAQW 270252Z AUTO 24004KT 10SM CLR M03/M11 A3036 RMK AO2 SLP291 T10331106 51024
 
KIZG - Fryeburg, Maine, USA
Distance from station: NNE 133mi, 214km
Updated: Tue, 26-Mar-2019 10:54pm EDT
Clear
Clear
 Wind from SE
Wind: SE 6 mph , 9 km/h
Temperature: 27°F , -3°C
Wind Chill: 20°F , -7°C
Dew Point: 3°F , -16°C
Humidity: 36%
Barometer: 30.36 inHg , 1028.1 hPa
Clouds: Clear
Visibility: 10 miles , 16 km
2019/03/27 02:54 KIZG 270254Z AUTO 14005KT 10SM CLR M03/M16 A3036 RMK AO2 SLP287 T10331161 51028
KMWN - Mt Washington, New Hampshire, USA
Distance from station: NNE 146mi, 234km
Updated: Tue, 26-Mar-2019 10:55pm EDT
Clear
Clear
 Wind from NW
Wind: NW 40 mph , 65 km/h, Gust: 60 mph , 96 km/h
Temperature: -0°F , -18°C
Wind Chill: -29°F , -34°C
Dew Point: -4°F , -20°C
Humidity: 84%
Clouds: Clear
Visibility: 110 miles , 176 km
2019/03/27 02:55 KMWN 270255Z 32035G52KT 110SM SKC M18/M20 RMK
 
KBML - Berlin, New Hampshire, USA
Distance from station: NNE 160mi, 257km
Updated: Tue, 26-Mar-2019 10:52pm EDT
Clear
Clear
 Wind from calm
Wind: Calm
Temperature: 12°F , -11°C
Dew Point: 5°F , -15°C
Humidity: 73%
Barometer: 30.32 inHg , 1026.8 hPa
Clouds: Clear
Visibility: 10 miles , 16 km
2019/03/27 02:52 KBML 270252Z AUTO 00000KT 10SM CLR M11/M15 A3032 RMK AO2 SLP291 T11061150 51017